sensor_id;sensor_type;location;lat;lon;timestamp;P1;durP1;ratioP1;P2;durP2;ratioP2
14169;SDS011;63889;50.596;8.690;2023-03-01T00:00:23;15.40;;;7.82;;
14169;SDS011;63889;50.596;8.690;2023-03-01T00:02:49;14.32;;;7.47;;
14169;SDS011;63889;50.596;8.690;2023-03-01T00:05:14;14.13;;;7.07;;
14169;SDS011;63889;50.596;8.690;2023-03-01T00:07:40;15.20;;;6.88;;
14169;SDS011;63889;50.596;8.690;2023-03-01T00:10:05;11.80;;;6.88;;
14169;SDS011;63889;50.596;8.690;2023-03-01T00:12:31;14.63;;;6.85;;
14169;SDS011;63889;50.596;8.690;2023-03-01T00:14:57;16.42;;;6.40;;
14169;SDS011;63889;50.596;8.690;2023-03-01T00:17:22;21.67;;;7.80;;
14169;SDS011;63889;50.596;8.690;2023-03-01T00:19:48;19.92;;;7.20;;
14169;SDS011;63889;50.596;8.690;2023-03-01T00:22:13;17.08;;;7.10;;
14169;SDS011;63889;50.596;8.690;2023-03-01T00:24:39;12.32;;;6.13;;
14169;SDS011;63889;50.596;8.690;2023-03-01T00:27:04;9.82;;;6.35;;
14169;SDS011;63889;50.596;8.690;2023-03-01T00:29:30;17.92;;;7.35;;
14169;SDS011;63889;50.596;8.690;2023-03-01T00:31:55;14.63;;;7.97;;
14169;SDS011;63889;50.596;8.690;2023-03-01T00:34:21;12.82;;;6.85;;
14169;SDS011;63889;50.596;8.690;2023-03-01T00:36:46;15.88;;;6.60;;
14169;SDS011;63889;50.596;8.690;2023-03-01T00:39:13;15.13;;;7.03;;
14169;SDS011;63889;50.596;8.690;2023-03-01T00:41:39;21.67;;;7.88;;
14169;SDS011;63889;50.596;8.690;2023-03-01T00:44:05;15.15;;;6.68;;
14169;SDS011;63889;50.596;8.690;2023-03-01T00:46:31;12.00;;;6.22;;
14169;SDS011;63889;50.596;8.690;2023-03-01T00:48:57;14.75;;;7.05;;
14169;SDS011;63889;50.596;8.690;2023-03-01T00:51:23;13.18;;;8.07;;
14169;SDS011;63889;50.596;8.690;2023-03-01T00:53:52;11.90;;;7.18;;
14169;SDS011;63889;50.596;8.690;2023-03-01T00:56:18;13.85;;;6.53;;
14169;SDS011;63889;50.596;8.690;2023-03-01T00:58:44;12.77;;;6.80;;
14169;SDS011;63889;50.596;8.690;2023-03-01T01:01:12;16.92;;;7.53;;
14169;SDS011;63889;50.596;8.690;2023-03-01T01:06:16;14.88;;;7.20;;
14169;SDS011;63889;50.596;8.690;2023-03-01T01:08:47;16.55;;;7.20;;
14169;SDS011;63889;50.596;8.690;2023-03-01T01:11:13;17.27;;;7.82;;
14169;SDS011;63889;50.596;8.690;2023-03-01T01:13:39;15.65;;;7.55;;
14169;SDS011;63889;50.596;8.690;2023-03-01T01:16:05;18.17;;;7.18;;
14169;SDS011;63889;50.596;8.690;2023-03-01T01:18:32;14.48;;;7.53;;
14169;SDS011;63889;50.596;8.690;2023-03-01T01:20:57;15.07;;;7.13;;
14169;SDS011;63889;50.596;8.690;2023-03-01T01:23:23;13.15;;;7.05;;
14169;SDS011;63889;50.596;8.690;2023-03-01T01:25:48;14.73;;;7.25;;
14169;SDS011;63889;50.596;8.690;2023-03-01T01:28:14;15.73;;;6.78;;
14169;SDS011;63889;50.596;8.690;2023-03-01T01:30:39;16.85;;;7.55;;
14169;SDS011;63889;50.596;8.690;2023-03-01T01:33:05;13.23;;;7.10;;
14169;SDS011;63889;50.596;8.690;2023-03-01T01:35:30;14.88;;;7.30;;
14169;SDS011;63889;50.596;8.690;2023-03-01T01:37:56;12.68;;;6.72;;
14169;SDS011;63889;50.596;8.690;2023-03-01T01:40:21;18.55;;;7.75;;
14169;SDS011;63889;50.596;8.690;2023-03-01T01:42:47;14.30;;;8.07;;
14169;SDS011;63889;50.596;8.690;2023-03-01T01:47:53;17.33;;;7.13;;
14169;SDS011;63889;50.596;8.690;2023-03-01T01:50:23;11.77;;;6.70;;
14169;SDS011;63889;50.596;8.690;2023-03-01T01:52:49;12.85;;;6.63;;
14169;SDS011;63889;50.596;8.690;2023-03-01T01:55:18;15.75;;;7.35;;
14169;SDS011;63889;50.596;8.690;2023-03-01T01:57:58;14.10;;;7.75;;
14169;SDS011;63889;50.596;8.690;2023-03-01T02:00:27;14.60;;;7.57;;
14169;SDS011;63889;50.596;8.690;2023-03-01T02:02:56;17.13;;;7.50;;
14169;SDS011;63889;50.596;8.690;2023-03-01T02:05:31;17.63;;;7.95;;
14169;SDS011;63889;50.596;8.690;2023-03-01T02:07:58;17.13;;;8.40;;
14169;SDS011;63889;50.596;8.690;2023-03-01T02:10:24;15.55;;;6.70;;
14169;SDS011;63889;50.596;8.690;2023-03-01T02:12:50;18.05;;;7.57;;
14169;SDS011;63889;50.596;8.690;2023-03-01T02:15:16;15.07;;;8.25;;
14169;SDS011;63889;50.596;8.690;2023-03-01T02:17:42;15.55;;;7.57;;
14169;SDS011;63889;50.596;8.690;2023-03-01T02:20:16;21.73;;;8.43;;
14169;SDS011;63889;50.596;8.690;2023-03-01T02:23:04;16.70;;;7.72;;
14169;SDS011;63889;50.596;8.690;2023-03-01T02:25:36;16.27;;;7.65;;
14169;SDS011;63889;50.596;8.690;2023-03-01T02:28:25;16.08;;;8.07;;
14169;SDS011;63889;50.596;8.690;2023-03-01T02:30:54;19.23;;;8.68;;
14169;SDS011;63889;50.596;8.690;2023-03-01T02:33:38;18.65;;;8.35;;
14169;SDS011;63889;50.596;8.690;2023-03-01T02:36:29;19.25;;;8.05;;
14169;SDS011;63889;50.596;8.690;2023-03-01T02:38:54;18.33;;;8.45;;
14169;SDS011;63889;50.596;8.690;2023-03-01T02:41:23;19.02;;;9.07;;
14169;SDS011;63889;50.596;8.690;2023-03-01T02:43:51;18.40;;;7.53;;
14169;SDS011;63889;50.596;8.690;2023-03-01T02:46:20;15.65;;;7.65;;
14169;SDS011;63889;50.596;8.690;2023-03-01T02:48:49;15.25;;;8.02;;
14169;SDS011;63889;50.596;8.690;2023-03-01T02:58:45;18.23;;;8.43;;
14169;SDS011;63889;50.596;8.690;2023-03-01T03:01:15;19.05;;;8.05;;
14169;SDS011;63889;50.596;8.690;2023-03-01T03:03:41;21.40;;;8.48;;
14169;SDS011;63889;50.596;8.690;2023-03-01T03:06:07;18.20;;;7.80;;
14169;SDS011;63889;50.596;8.690;2023-03-01T03:08:34;15.32;;;7.75;;
14169;SDS011;63889;50.596;8.690;2023-03-01T03:10:59;17.70;;;8.15;;
14169;SDS011;63889;50.596;8.690;2023-03-01T03:13:25;25.30;;;9.05;;
14169;SDS011;63889;50.596;8.690;2023-03-01T03:15:54;16.85;;;8.27;;
14169;SDS011;63889;50.596;8.690;2023-03-01T03:18:20;18.20;;;8.02;;
14169;SDS011;63889;50.596;8.690;2023-03-01T03:20:47;16.70;;;7.90;;
14169;SDS011;63889;50.596;8.690;2023-03-01T03:23:12;18.70;;;7.47;;
14169;SDS011;63889;50.596;8.690;2023-03-01T03:25:38;16.15;;;7.95;;
14169;SDS011;63889;50.596;8.690;2023-03-01T03:28:04;16.67;;;7.95;;
14169;SDS011;63889;50.596;8.690;2023-03-01T03:30:35;18.85;;;8.35;;
14169;SDS011;63889;50.596;8.690;2023-03-01T03:33:03;17.55;;;8.75;;
14169;SDS011;63889;50.596;8.690;2023-03-01T03:35:31;16.48;;;8.77;;
14169;SDS011;63889;50.596;8.690;2023-03-01T03:37:59;19.02;;;8.73;;
14169;SDS011;63889;50.596;8.690;2023-03-01T03:40:30;18.08;;;7.65;;
14169;SDS011;63889;50.596;8.690;2023-03-01T03:43:00;23.15;;;8.90;;
14169;SDS011;63889;50.596;8.690;2023-03-01T03:45:26;20.08;;;7.75;;
14169;SDS011;63889;50.596;8.690;2023-03-01T03:47:52;19.08;;;8.52;;
14169;SDS011;63889;50.596;8.690;2023-03-01T03:50:18;18.23;;;8.30;;
14169;SDS011;63889;50.596;8.690;2023-03-01T03:52:44;18.35;;;7.88;;
14169;SDS011;63889;50.596;8.690;2023-03-01T03:55:10;18.17;;;8.30;;
14169;SDS011;63889;50.596;8.690;2023-03-01T03:57:38;15.52;;;7.88;;
14169;SDS011;63889;50.596;8.690;2023-03-01T04:00:05;18.00;;;8.88;;
14169;SDS011;63889;50.596;8.690;2023-03-01T04:02:42;21.23;;;8.75;;
14169;SDS011;63889;50.596;8.690;2023-03-01T04:05:09;24.88;;;8.52;;
14169;SDS011;63889;50.596;8.690;2023-03-01T04:07:37;16.33;;;7.88;;
14169;SDS011;63889;50.596;8.690;2023-03-01T04:10:04;16.25;;;8.23;;
14169;SDS011;63889;50.596;8.690;2023-03-01T04:12:31;24.83;;;9.18;;
14169;SDS011;63889;50.596;8.690;2023-03-01T04:14:59;23.00;;;9.85;;
14169;SDS011;63889;50.596;8.690;2023-03-01T04:17:25;21.80;;;8.82;;
14169;SDS011;63889;50.596;8.690;2023-03-01T04:19:50;16.83;;;8.90;;
14169;SDS011;63889;50.596;8.690;2023-03-01T04:22:16;18.20;;;8.50;;
14169;SDS011;63889;50.596;8.690;2023-03-01T04:24:43;19.65;;;8.65;;
14169;SDS011;63889;50.596;8.690;2023-03-01T04:27:09;19.67;;;8.20;;
14169;SDS011;63889;50.596;8.690;2023-03-01T04:29:35;19.30;;;8.40;;
14169;SDS011;63889;50.596;8.690;2023-03-01T04:32:00;21.63;;;8.70;;
14169;SDS011;63889;50.596;8.690;2023-03-01T04:34:27;20.83;;;8.63;;
14169;SDS011;63889;50.596;8.690;2023-03-01T04:36:53;19.50;;;8.13;;
14169;SDS011;63889;50.596;8.690;2023-03-01T04:39:19;16.85;;;8.50;;
14169;SDS011;63889;50.596;8.690;2023-03-01T04:41:45;20.63;;;8.85;;
14169;SDS011;63889;50.596;8.690;2023-03-01T04:44:10;18.85;;;8.50;;
14169;SDS011;63889;50.596;8.690;2023-03-01T04:46:36;17.05;;;7.80;;
14169;SDS011;63889;50.596;8.690;2023-03-01T04:49:02;18.85;;;8.85;;
14169;SDS011;63889;50.596;8.690;2023-03-01T04:51:28;20.70;;;8.63;;
14169;SDS011;63889;50.596;8.690;2023-03-01T04:53:54;20.20;;;8.75;;
14169;SDS011;63889;50.596;8.690;2023-03-01T04:56:19;18.33;;;7.75;;
14169;SDS011;63889;50.596;8.690;2023-03-01T04:58:47;17.75;;;8.35;;
14169;SDS011;63889;50.596;8.690;2023-03-01T05:01:14;18.70;;;7.40;;
14169;SDS011;63889;50.596;8.690;2023-03-01T05:03:43;19.13;;;8.38;;
14169;SDS011;63889;50.596;8.690;2023-03-01T05:06:10;20.77;;;7.78;;
14169;SDS011;63889;50.596;8.690;2023-03-01T05:08:37;22.15;;;9.10;;
14169;SDS011;63889;50.596;8.690;2023-03-01T05:11:04;14.73;;;7.95;;
14169;SDS011;63889;50.596;8.690;2023-03-01T05:13:30;17.70;;;8.85;;
14169;SDS011;63889;50.596;8.690;2023-03-01T05:15:57;21.45;;;9.30;;
14169;SDS011;63889;50.596;8.690;2023-03-01T05:18:24;23.63;;;8.77;;
14169;SDS011;63889;50.596;8.690;2023-03-01T05:20:52;19.60;;;8.68;;
14169;SDS011;63889;50.596;8.690;2023-03-01T05:23:23;16.35;;;8.15;;
14169;SDS011;63889;50.596;8.690;2023-03-01T05:25:52;20.00;;;8.77;;
14169;SDS011;63889;50.596;8.690;2023-03-01T05:28:17;20.40;;;8.80;;
14169;SDS011;63889;50.596;8.690;2023-03-01T05:30:44;18.98;;;8.75;;
14169;SDS011;63889;50.596;8.690;2023-03-01T05:33:10;24.63;;;8.73;;
14169;SDS011;63889;50.596;8.690;2023-03-01T05:35:42;20.17;;;9.93;;
14169;SDS011;63889;50.596;8.690;2023-03-01T05:38:09;19.83;;;8.35;;
14169;SDS011;63889;50.596;8.690;2023-03-01T05:40:39;20.95;;;8.50;;
14169;SDS011;63889;50.596;8.690;2023-03-01T05:43:09;25.40;;;9.30;;
14169;SDS011;63889;50.596;8.690;2023-03-01T05:45:35;20.85;;;8.05;;
14169;SDS011;63889;50.596;8.690;2023-03-01T05:48:03;19.95;;;8.75;;
14169;SDS011;63889;50.596;8.690;2023-03-01T05:50:31;20.20;;;8.95;;
14169;SDS011;63889;50.596;8.690;2023-03-01T05:55:25;19.23;;;8.55;;
14169;SDS011;63889;50.596;8.690;2023-03-01T05:57:52;20.42;;;9.02;;
14169;SDS011;63889;50.596;8.690;2023-03-01T06:00:18;18.73;;;8.15;;
14169;SDS011;63889;50.596;8.690;2023-03-01T06:02:47;18.60;;;9.13;;
14169;SDS011;63889;50.596;8.690;2023-03-01T06:05:13;25.95;;;9.63;;
14169;SDS011;63889;50.596;8.690;2023-03-01T06:07:39;27.08;;;10.45;;
14169;SDS011;63889;50.596;8.690;2023-03-01T06:10:05;22.60;;;9.75;;
14169;SDS011;63889;50.596;8.690;2023-03-01T06:12:33;26.90;;;11.40;;
14169;SDS011;63889;50.596;8.690;2023-03-01T06:15:00;26.77;;;9.75;;
14169;SDS011;63889;50.596;8.690;2023-03-01T06:17:26;21.02;;;9.10;;
14169;SDS011;63889;50.596;8.690;2023-03-01T06:19:54;25.73;;;8.93;;
14169;SDS011;63889;50.596;8.690;2023-03-01T06:22:19;20.45;;;8.73;;
14169;SDS011;63889;50.596;8.690;2023-03-01T06:24:45;22.70;;;8.90;;
14169;SDS011;63889;50.596;8.690;2023-03-01T06:27:10;20.33;;;9.50;;
14169;SDS011;63889;50.596;8.690;2023-03-01T06:29:36;17.23;;;8.68;;
14169;SDS011;63889;50.596;8.690;2023-03-01T06:32:02;16.20;;;8.23;;
14169;SDS011;63889;50.596;8.690;2023-03-01T06:34:28;18.30;;;7.95;;
14169;SDS011;63889;50.596;8.690;2023-03-01T06:36:53;17.00;;;7.95;;
14169;SDS011;63889;50.596;8.690;2023-03-01T06:39:19;18.27;;;8.68;;
14169;SDS011;63889;50.596;8.690;2023-03-01T06:41:44;20.58;;;8.30;;
14169;SDS011;63889;50.596;8.690;2023-03-01T06:44:10;17.80;;;8.43;;
14169;SDS011;63889;50.596;8.690;2023-03-01T06:46:35;19.17;;;7.35;;
14169;SDS011;63889;50.596;8.690;2023-03-01T06:49:01;21.95;;;8.68;;
14169;SDS011;63889;50.596;8.690;2023-03-01T06:51:29;19.17;;;9.23;;
14169;SDS011;63889;50.596;8.690;2023-03-01T06:53:54;21.75;;;8.38;;
14169;SDS011;63889;50.596;8.690;2023-03-01T06:56:20;20.23;;;9.07;;
14169;SDS011;63889;50.596;8.690;2023-03-01T06:58:46;17.63;;;8.93;;
14169;SDS011;63889;50.596;8.690;2023-03-01T07:01:11;25.40;;;9.23;;
14169;SDS011;63889;50.596;8.690;2023-03-01T07:03:37;19.77;;;8.88;;
14169;SDS011;63889;50.596;8.690;2023-03-01T07:06:02;20.70;;;9.15;;
14169;SDS011;63889;50.596;8.690;2023-03-01T07:08:28;16.55;;;8.57;;
14169;SDS011;63889;50.596;8.690;2023-03-01T07:10:57;23.00;;;8.18;;
14169;SDS011;63889;50.596;8.690;2023-03-01T07:13:23;20.85;;;8.57;;
14169;SDS011;63889;50.596;8.690;2023-03-01T07:15:49;21.30;;;8.45;;
14169;SDS011;63889;50.596;8.690;2023-03-01T07:18:14;23.75;;;8.93;;
14169;SDS011;63889;50.596;8.690;2023-03-01T07:20:40;20.48;;;8.60;;
14169;SDS011;63889;50.596;8.690;2023-03-01T07:23:05;22.58;;;9.10;;
14169;SDS011;63889;50.596;8.690;2023-03-01T07:25:31;18.27;;;8.85;;
14169;SDS011;63889;50.596;8.690;2023-03-01T07:27:57;21.40;;;8.63;;
14169;SDS011;63889;50.596;8.690;2023-03-01T07:30:23;20.33;;;9.32;;
14169;SDS011;63889;50.596;8.690;2023-03-01T07:32:50;19.05;;;9.68;;
14169;SDS011;63889;50.596;8.690;2023-03-01T07:35:16;23.35;;;9.57;;
14169;SDS011;63889;50.596;8.690;2023-03-01T07:37:42;20.75;;;9.32;;
14169;SDS011;63889;50.596;8.690;2023-03-01T07:40:08;25.08;;;9.38;;
14169;SDS011;63889;50.596;8.690;2023-03-01T07:42:35;17.88;;;8.77;;
14169;SDS011;63889;50.596;8.690;2023-03-01T07:45:01;19.33;;;10.07;;
14169;SDS011;63889;50.596;8.690;2023-03-01T07:47:27;19.35;;;8.82;;
14169;SDS011;63889;50.596;8.690;2023-03-01T07:49:53;20.45;;;9.27;;
14169;SDS011;63889;50.596;8.690;2023-03-01T07:52:18;22.88;;;9.27;;
14169;SDS011;63889;50.596;8.690;2023-03-01T07:54:44;22.00;;;9.23;;
14169;SDS011;63889;50.596;8.690;2023-03-01T07:57:09;25.30;;;8.77;;
14169;SDS011;63889;50.596;8.690;2023-03-01T07:59:35;20.05;;;9.95;;
14169;SDS011;63889;50.596;8.690;2023-03-01T08:02:01;18.70;;;8.40;;
14169;SDS011;63889;50.596;8.690;2023-03-01T08:04:26;21.90;;;9.32;;
14169;SDS011;63889;50.596;8.690;2023-03-01T08:06:52;19.17;;;9.20;;
14169;SDS011;63889;50.596;8.690;2023-03-01T08:09:18;21.13;;;9.00;;
14169;SDS011;63889;50.596;8.690;2023-03-01T08:11:44;20.95;;;8.73;;
14169;SDS011;63889;50.596;8.690;2023-03-01T08:14:09;18.10;;;8.73;;
14169;SDS011;63889;50.596;8.690;2023-03-01T08:16:35;18.98;;;8.98;;
14169;SDS011;63889;50.596;8.690;2023-03-01T08:19:05;20.05;;;8.95;;
14169;SDS011;63889;50.596;8.690;2023-03-01T08:21:32;15.63;;;8.00;;
14169;SDS011;63889;50.596;8.690;2023-03-01T08:23:59;19.05;;;9.68;;
14169;SDS011;63889;50.596;8.690;2023-03-01T08:26:25;20.65;;;8.07;;
14169;SDS011;63889;50.596;8.690;2023-03-01T08:28:51;20.67;;;9.57;;
14169;SDS011;63889;50.596;8.690;2023-03-01T08:33:53;18.67;;;8.43;;
14169;SDS011;63889;50.596;8.690;2023-03-01T08:36:22;17.77;;;8.43;;
14169;SDS011;63889;50.596;8.690;2023-03-01T08:38:49;17.40;;;7.78;;
14169;SDS011;63889;50.596;8.690;2023-03-01T08:41:15;21.10;;;9.48;;
14169;SDS011;63889;50.596;8.690;2023-03-01T08:43:41;18.60;;;8.65;;
14169;SDS011;63889;50.596;8.690;2023-03-01T08:46:06;16.98;;;7.70;;
14169;SDS011;63889;50.596;8.690;2023-03-01T08:48:32;18.13;;;8.10;;
14169;SDS011;63889;50.596;8.690;2023-03-01T08:51:06;14.65;;;6.80;;
14169;SDS011;63889;50.596;8.690;2023-03-01T08:53:36;14.43;;;7.25;;
14169;SDS011;63889;50.596;8.690;2023-03-01T08:56:02;16.05;;;7.65;;
14169;SDS011;63889;50.596;8.690;2023-03-01T08:58:28;16.25;;;7.57;;
14169;SDS011;63889;50.596;8.690;2023-03-01T09:00:54;19.52;;;8.82;;
14169;SDS011;63889;50.596;8.690;2023-03-01T09:03:21;17.73;;;7.22;;
14169;SDS011;63889;50.596;8.690;2023-03-01T09:05:47;24.15;;;8.18;;
14169;SDS011;63889;50.596;8.690;2023-03-01T09:08:15;15.05;;;7.30;;
14169;SDS011;63889;50.596;8.690;2023-03-01T09:10:41;16.23;;;7.28;;
14169;SDS011;63889;50.596;8.690;2023-03-01T09:13:06;12.98;;;6.43;;
14169;SDS011;63889;50.596;8.690;2023-03-01T09:15:32;13.10;;;6.72;;
14169;SDS011;63889;50.596;8.690;2023-03-01T09:17:58;18.80;;;7.05;;
14169;SDS011;63889;50.596;8.690;2023-03-01T09:20:24;13.32;;;6.50;;
14169;SDS011;63889;50.596;8.690;2023-03-01T09:22:50;16.48;;;7.22;;
14169;SDS011;63889;50.596;8.690;2023-03-01T09:25:15;13.02;;;6.82;;
14169;SDS011;63889;50.596;8.690;2023-03-01T09:27:41;19.08;;;7.50;;
14169;SDS011;63889;50.596;8.690;2023-03-01T09:30:07;13.85;;;7.18;;
14169;SDS011;63889;50.596;8.690;2023-03-01T09:32:33;13.38;;;6.13;;
14169;SDS011;63889;50.596;8.690;2023-03-01T09:34:58;14.20;;;6.82;;
14169;SDS011;63889;50.596;8.690;2023-03-01T09:37:29;12.88;;;6.45;;
14169;SDS011;63889;50.596;8.690;2023-03-01T09:39:56;13.85;;;7.13;;
14169;SDS011;63889;50.596;8.690;2023-03-01T09:42:22;13.30;;;6.68;;
14169;SDS011;63889;50.596;8.690;2023-03-01T09:44:49;15.27;;;6.60;;
14169;SDS011;63889;50.596;8.690;2023-03-01T09:47:27;22.63;;;6.95;;
14169;SDS011;63889;50.596;8.690;2023-03-01T09:50:00;14.88;;;6.70;;
14169;SDS011;63889;50.596;8.690;2023-03-01T09:54:58;18.15;;;6.97;;
14169;SDS011;63889;50.596;8.690;2023-03-01T09:57:26;16.50;;;6.68;;
14169;SDS011;63889;50.596;8.690;2023-03-01T10:02:51;17.25;;;7.10;;
14169;SDS011;63889;50.596;8.690;2023-03-01T10:05:33;17.08;;;6.97;;
14169;SDS011;63889;50.596;8.690;2023-03-01T10:10:48;16.08;;;6.63;;
14169;SDS011;63889;50.596;8.690;2023-03-01T10:16:01;16.17;;;6.90;;
14169;SDS011;63889;50.596;8.690;2023-03-01T10:18:38;13.93;;;6.32;;
14169;SDS011;63889;50.596;8.690;2023-03-01T10:21:14;17.13;;;7.15;;
14169;SDS011;63889;50.596;8.690;2023-03-01T10:23:42;13.20;;;6.38;;
14169;SDS011;63889;50.596;8.690;2023-03-01T10:28:42;14.50;;;6.32;;
14169;SDS011;63889;50.596;8.690;2023-03-01T10:31:11;13.73;;;6.93;;
14169;SDS011;63889;50.596;8.690;2023-03-01T10:33:41;10.70;;;5.82;;
14169;SDS011;63889;50.596;8.690;2023-03-01T10:36:07;15.65;;;6.53;;
14169;SDS011;63889;50.596;8.690;2023-03-01T10:38:53;10.70;;;6.10;;
14169;SDS011;63889;50.596;8.690;2023-03-01T10:41:21;13.02;;;6.43;;
14169;SDS011;63889;50.596;8.690;2023-03-01T10:43:55;14.45;;;6.60;;
14169;SDS011;63889;50.596;8.690;2023-03-01T10:46:26;12.20;;;5.50;;
14169;SDS011;63889;50.596;8.690;2023-03-01T10:49:16;14.27;;;6.38;;
14169;SDS011;63889;50.596;8.690;2023-03-01T10:51:46;13.60;;;6.43;;
14169;SDS011;63889;50.596;8.690;2023-03-01T10:56:46;15.27;;;6.93;;
14169;SDS011;63889;50.596;8.690;2023-03-01T10:59:26;12.30;;;6.20;;
14169;SDS011;63889;50.596;8.690;2023-03-01T11:04:58;12.40;;;6.30;;
14169;SDS011;63889;50.596;8.690;2023-03-01T11:07:27;13.55;;;6.28;;
14169;SDS011;63889;50.596;8.690;2023-03-01T11:09:53;11.38;;;6.50;;
14169;SDS011;63889;50.596;8.690;2023-03-01T11:12:20;12.80;;;6.28;;
14169;SDS011;63889;50.596;8.690;2023-03-01T11:14:56;13.77;;;6.97;;
14169;SDS011;63889;50.596;8.690;2023-03-01T11:17:29;9.98;;;5.93;;
14169;SDS011;63889;50.596;8.690;2023-03-01T11:22:38;17.85;;;6.90;;
14169;SDS011;63889;50.596;8.690;2023-03-01T11:25:14;11.73;;;6.25;;
14169;SDS011;63889;50.596;8.690;2023-03-01T11:35:49;11.18;;;6.20;;
14169;SDS011;63889;50.596;8.690;2023-03-01T11:38:23;12.30;;;7.10;;
14169;SDS011;63889;50.596;8.690;2023-03-01T11:41:01;15.13;;;7.30;;
14169;SDS011;63889;50.596;8.690;2023-03-01T11:49:49;9.95;;;6.13;;
14169;SDS011;63889;50.596;8.690;2023-03-01T11:52:48;19.83;;;7.00;;
14169;SDS011;63889;50.596;8.690;2023-03-01T11:55:46;21.23;;;7.15;;
14169;SDS011;63889;50.596;8.690;2023-03-01T11:58:27;13.38;;;6.95;;
14169;SDS011;63889;50.596;8.690;2023-03-01T12:09:02;13.80;;;6.40;;
14169;SDS011;63889;50.596;8.690;2023-03-01T12:11:48;14.20;;;6.82;;
14169;SDS011;63889;50.596;8.690;2023-03-01T12:20:02;15.73;;;6.57;;
14169;SDS011;63889;50.596;8.690;2023-03-01T12:22:36;14.02;;;6.47;;
14169;SDS011;63889;50.596;8.690;2023-03-01T12:25:36;16.08;;;6.72;;
14169;SDS011;63889;50.596;8.690;2023-03-01T12:28:13;12.48;;;6.93;;
14169;SDS011;63889;50.596;8.690;2023-03-01T12:34:26;13.05;;;6.05;;
14169;SDS011;63889;50.596;8.690;2023-03-01T12:39:37;18.65;;;6.63;;
14169;SDS011;63889;50.596;8.690;2023-03-01T12:50:29;13.15;;;6.50;;
14169;SDS011;63889;50.596;8.690;2023-03-01T12:53:04;16.67;;;7.10;;
14169;SDS011;63889;50.596;8.690;2023-03-01T12:58:03;14.17;;;6.20;;
14169;SDS011;63889;50.596;8.690;2023-03-01T13:00:49;10.45;;;6.05;;
14169;SDS011;63889;50.596;8.690;2023-03-01T13:03:31;10.93;;;6.03;;
14169;SDS011;63889;50.596;8.690;2023-03-01T13:09:02;11.45;;;6.18;;
14169;SDS011;63889;50.596;8.690;2023-03-01T13:11:28;12.43;;;6.32;;
14169;SDS011;63889;50.596;8.690;2023-03-01T13:16:44;11.90;;;6.10;;
14169;SDS011;63889;50.596;8.690;2023-03-01T13:19:21;11.82;;;6.53;;
14169;SDS011;63889;50.596;8.690;2023-03-01T13:21:48;12.00;;;6.40;;
14169;SDS011;63889;50.596;8.690;2023-03-01T13:24:39;12.48;;;6.30;;
14169;SDS011;63889;50.596;8.690;2023-03-01T13:29:44;11.65;;;6.78;;
14169;SDS011;63889;50.596;8.690;2023-03-01T13:34:58;11.32;;;6.35;;
14169;SDS011;63889;50.596;8.690;2023-03-01T13:37:32;12.88;;;6.53;;
14169;SDS011;63889;50.596;8.690;2023-03-01T13:40:00;9.00;;;6.18;;
14169;SDS011;63889;50.596;8.690;2023-03-01T13:42:37;13.55;;;6.85;;
14169;SDS011;63889;50.596;8.690;2023-03-01T13:45:32;15.93;;;6.82;;
14169;SDS011;63889;50.596;8.690;2023-03-01T13:47:58;9.00;;;5.88;;
14169;SDS011;63889;50.596;8.690;2023-03-01T13:50:28;14.95;;;6.95;;
14169;SDS011;63889;50.596;8.690;2023-03-01T13:53:04;12.88;;;7.13;;
14169;SDS011;63889;50.596;8.690;2023-03-01T13:55:40;13.80;;;6.18;;
14169;SDS011;63889;50.596;8.690;2023-03-01T14:01:05;13.45;;;6.97;;
14169;SDS011;63889;50.596;8.690;2023-03-01T14:03:34;12.32;;;6.40;;
14169;SDS011;63889;50.596;8.690;2023-03-01T14:06:13;14.20;;;6.05;;
14169;SDS011;63889;50.596;8.690;2023-03-01T14:08:42;16.75;;;6.82;;
14169;SDS011;63889;50.596;8.690;2023-03-01T14:14:09;12.10;;;6.38;;
14169;SDS011;63889;50.596;8.690;2023-03-01T14:19:30;10.95;;;5.90;;
14169;SDS011;63889;50.596;8.690;2023-03-01T14:21:58;8.68;;;5.40;;
14169;SDS011;63889;50.596;8.690;2023-03-01T14:24:29;11.00;;;6.10;;
14169;SDS011;63889;50.596;8.690;2023-03-01T14:26:57;10.20;;;6.03;;
14169;SDS011;63889;50.596;8.690;2023-03-01T14:29:26;12.50;;;6.28;;
14169;SDS011;63889;50.596;8.690;2023-03-01T14:34:49;13.20;;;6.20;;
14169;SDS011;63889;50.596;8.690;2023-03-01T14:37:17;11.65;;;6.18;;
14169;SDS011;63889;50.596;8.690;2023-03-01T14:39:49;11.38;;;5.43;;
14169;SDS011;63889;50.596;8.690;2023-03-01T14:42:15;9.90;;;5.97;;
14169;SDS011;63889;50.596;8.690;2023-03-01T14:44:44;11.05;;;5.18;;
14169;SDS011;63889;50.596;8.690;2023-03-01T14:47:13;8.70;;;5.03;;
14169;SDS011;63889;50.596;8.690;2023-03-01T14:49:44;9.07;;;5.70;;
14169;SDS011;63889;50.596;8.690;2023-03-01T14:52:31;13.00;;;6.57;;
14169;SDS011;63889;50.596;8.690;2023-03-01T14:55:02;10.05;;;5.53;;
14169;SDS011;63889;50.596;8.690;2023-03-01T14:57:31;16.67;;;5.78;;
14169;SDS011;63889;50.596;8.690;2023-03-01T14:59:58;11.68;;;5.88;;
14169;SDS011;63889;50.596;8.690;2023-03-01T15:02:27;9.63;;;5.70;;
14169;SDS011;63889;50.596;8.690;2023-03-01T15:04:56;10.60;;;5.07;;
14169;SDS011;63889;50.596;8.690;2023-03-01T15:07:26;12.18;;;5.43;;
14169;SDS011;63889;50.596;8.690;2023-03-01T15:09:56;9.55;;;5.10;;
14169;SDS011;63889;50.596;8.690;2023-03-01T15:14:57;11.40;;;4.68;;
14169;SDS011;63889;50.596;8.690;2023-03-01T15:19:59;13.27;;;5.25;;
14169;SDS011;63889;50.596;8.690;2023-03-01T15:22:27;8.05;;;4.30;;
14169;SDS011;63889;50.596;8.690;2023-03-01T15:24:53;8.25;;;4.88;;
14169;SDS011;63889;50.596;8.690;2023-03-01T15:27:20;9.43;;;4.50;;
14169;SDS011;63889;50.596;8.690;2023-03-01T15:29:49;11.38;;;5.00;;
14169;SDS011;63889;50.596;8.690;2023-03-01T15:38:25;11.27;;;4.85;;
14169;SDS011;63889;50.596;8.690;2023-03-01T15:40:55;9.82;;;4.85;;
14169;SDS011;63889;50.596;8.690;2023-03-01T15:43:38;9.55;;;4.35;;
14169;SDS011;63889;50.596;8.690;2023-03-01T15:46:22;10.32;;;4.50;;
14169;SDS011;63889;50.596;8.690;2023-03-01T15:49:03;10.57;;;4.70;;
14169;SDS011;63889;50.596;8.690;2023-03-01T15:51:42;8.70;;;4.55;;
14169;SDS011;63889;50.596;8.690;2023-03-01T15:54:14;12.40;;;4.63;;
14169;SDS011;63889;50.596;8.690;2023-03-01T15:56:50;8.90;;;4.32;;
14169;SDS011;63889;50.596;8.690;2023-03-01T15:59:16;10.43;;;4.72;;
14169;SDS011;63889;50.596;8.690;2023-03-01T16:01:43;11.93;;;4.65;;
14169;SDS011;63889;50.596;8.690;2023-03-01T16:04:09;11.50;;;4.85;;
14169;SDS011;63889;50.596;8.690;2023-03-01T16:09:06;8.35;;;4.32;;
14169;SDS011;63889;50.596;8.690;2023-03-01T16:11:32;11.70;;;4.82;;
14169;SDS011;63889;50.596;8.690;2023-03-01T16:13:59;10.80;;;5.03;;
14169;SDS011;63889;50.596;8.690;2023-03-01T16:16:24;9.68;;;5.30;;
14169;SDS011;63889;50.596;8.690;2023-03-01T16:18:50;10.13;;;5.38;;
14169;SDS011;63889;50.596;8.690;2023-03-01T16:21:23;12.73;;;4.50;;
14169;SDS011;63889;50.596;8.690;2023-03-01T16:23:50;11.05;;;5.32;;
14169;SDS011;63889;50.596;8.690;2023-03-01T16:26:16;9.20;;;4.90;;
14169;SDS011;63889;50.596;8.690;2023-03-01T16:28:43;12.32;;;5.40;;
14169;SDS011;63889;50.596;8.690;2023-03-01T16:31:09;11.32;;;5.20;;
14169;SDS011;63889;50.596;8.690;2023-03-01T16:33:36;12.65;;;4.95;;
14169;SDS011;63889;50.596;8.690;2023-03-01T16:36:08;12.38;;;5.05;;
14169;SDS011;63889;50.596;8.690;2023-03-01T16:38:36;7.88;;;4.60;;
14169;SDS011;63889;50.596;8.690;2023-03-01T16:41:01;9.35;;;4.75;;
14169;SDS011;63889;50.596;8.690;2023-03-01T16:43:28;11.52;;;4.72;;
14169;SDS011;63889;50.596;8.690;2023-03-01T16:45:54;9.75;;;4.43;;